Time;durP1;ratioP1;P1;durP2;ratioP2;P2;SDS_P1;SDS_P2;PMS_P1;PMS_P2;Temp;Humidity;BMP_temperature;BMP_pressure;BME280_temperature;BME280_humidity;BME280_pressure;Samples;Min_cycle;Max_cycle;Signal;HPM_P1;HPM_P2
2022/10/19 03:02:41;;;;;;;6.25;2.00;;;9.40;99.90;;;;;;6274113;22;20102;-77
2022/10/19 03:05:08;;;;;;;6.55;2.20;;;9.30;99.90;;;;;;6275055;22;20016;-80
2022/10/19 03:07:34;;;;;;;10.10;2.30;;;9.30;99.90;;;;;;6249390;22;20100;-76
2022/10/19 03:10:00;;;;;;;5.68;2.30;;;9.30;99.90;;;;;;6274864;22;20114;-79
2022/10/19 03:12:25;;;;;;;7.45;2.58;;;9.30;99.90;;;;;;6274741;22;20019;-79
2022/10/19 03:14:51;;;;;;;11.57;2.70;;;9.30;99.90;;;;;;6276957;22;20329;-77
2022/10/19 03:17:17;;;;;;;7.60;2.65;;;9.30;99.90;;;;;;6274774;22;20007;-78
2022/10/19 03:19:42;;;;;;;7.90;2.38;;;9.30;99.90;;;;;;6274633;22;20012;-78
2022/10/19 03:22:08;;;;;;;4.57;2.20;;;9.30;99.90;;;;;;6276069;22;20107;-80
2022/10/19 03:24:34;;;;;;;7.53;2.78;;;9.20;99.90;;;;;;6274270;22;20015;-76
2022/10/19 03:26:59;;;;;;;5.85;2.50;;;9.30;99.90;;;;;;6274239;22;20012;-76
2022/10/19 03:29:25;;;;;;;9.75;3.10;;;9.20;99.90;;;;;;6276455;22;20020;-79
2022/10/19 03:31:51;;;;;;;7.88;2.70;;;9.20;99.90;;;;;;6250973;22;20012;-76
2022/10/19 03:34:16;;;;;;;6.75;2.65;;;9.20;99.90;;;;;;6278158;22;20014;-77
2022/10/19 03:36:42;;;;;;;6.20;2.70;;;9.20;99.90;;;;;;6276469;22;20023;-79
2022/10/19 03:39:12;;;;;;;5.53;2.65;;;9.30;99.90;;;;;;6276420;22;20051;-76
2022/10/19 03:41:39;;;;;;;5.20;2.60;;;9.30;99.90;;;;;;6278028;22;20799;-75
2022/10/19 03:44:06;;;;;;;8.90;2.55;;;9.30;99.90;;;;;;6276362;22;20134;-77
2022/10/19 03:46:32;;;;;;;8.18;2.88;;;9.30;99.90;;;;;;6277917;22;20019;-80
2022/10/19 03:48:58;;;;;;;6.05;2.58;;;9.20;99.90;;;;;;6276368;22;20038;-80
2022/10/19 03:51:26;;;;;;;8.50;2.90;;;9.30;99.90;;;;;;6276275;22;20433;-74
2022/10/19 03:53:53;;;;;;;6.20;2.70;;;9.30;99.90;;;;;;6276479;22;20015;-78
2022/10/19 03:56:21;;;;;;;6.90;2.75;;;9.30;99.90;;;;;;6276425;22;20007;-77
2022/10/19 03:58:49;;;;;;;6.88;3.00;;;9.30;99.90;;;;;;6277968;22;20011;-79
2022/10/19 04:01:20;;;;;;;6.88;2.50;;;9.30;99.90;;;;;;6276153;22;20022;-79
2022/10/19 04:03:46;;;;;;;6.30;3.17;;;9.30;99.90;;;;;;6278131;22;20018;-81
2022/10/19 04:06:17;;;;;;;8.30;2.70;;;9.30;99.90;;;;;;6278290;22;20404;-79
2022/10/19 04:08:46;;;;;;;5.32;2.47;;;9.30;99.90;;;;;;6276257;22;20012;-79
2022/10/19 04:11:14;;;;;;;9.25;3.08;;;9.30;99.90;;;;;;6277675;22;20057;-78
2022/10/19 04:13:39;;;;;;;7.47;2.95;;;9.40;99.90;;;;;;6278191;22;20012;-80
2022/10/19 04:16:06;;;;;;;8.73;3.30;;;9.40;99.90;;;;;;6276233;22;20502;-76
2022/10/19 04:18:32;;;;;;;9.75;2.50;;;9.40;99.90;;;;;;6277683;22;20012;-78
2022/10/19 04:21:00;;;;;;;9.98;2.55;;;9.50;99.90;;;;;;6278188;22;20011;-77
2022/10/19 04:23:27;;;;;;;8.38;2.65;;;9.40;99.90;;;;;;6276293;22;20043;-75
2022/10/19 04:25:59;;;;;;;5.25;2.20;;;9.40;99.90;;;;;;6276253;22;20051;-75
2022/10/19 04:28:24;;;;;;;8.65;2.72;;;9.40;99.90;;;;;;6276183;22;20091;-74
2022/10/19 04:30:50;;;;;;;6.15;2.70;;;9.40;99.90;;;;;;6276266;22;20405;-77
2022/10/19 04:33:16;;;;;;;8.02;2.95;;;9.40;99.90;;;;;;6277998;22;20015;-78
2022/10/19 04:35:41;;;;;;;5.68;2.63;;;9.40;99.90;;;;;;6277928;22;20011;-78
2022/10/19 04:38:07;;;;;;;6.00;2.90;;;9.40;99.90;;;;;;6276135;22;20015;-77
2022/10/19 04:40:36;;;;;;;7.30;2.70;;;9.40;99.90;;;;;;6275537;22;20024;-81
2022/10/19 04:43:03;;;;;;;9.07;2.33;;;9.40;99.90;;;;;;6275984;22;20030;-79
2022/10/19 04:45:28;;;;;;;5.97;2.40;;;9.40;99.90;;;;;;6277933;22;20042;-76
2022/10/19 04:47:55;;;;;;;8.73;3.08;;;9.40;99.90;;;;;;6275973;22;20055;-80
2022/10/19 04:50:22;;;;;;;4.40;2.67;;;9.30;99.90;;;;;;6277402;22;20368;-77
2022/10/19 04:52:48;;;;;;;10.30;2.70;;;9.30;99.90;;;;;;6276023;22;20348;-80
2022/10/19 04:55:13;;;;;;;6.50;2.92;;;9.30;99.90;;;;;;6277875;22;20011;-79
2022/10/19 04:57:39;;;;;;;8.00;2.95;;;9.30;99.90;;;;;;6276252;22;20015;-81
2022/10/19 05:00:05;;;;;;;5.20;2.42;;;9.30;99.90;;;;;;6276093;22;20026;-81
2022/10/19 05:02:31;;;;;;;5.85;2.63;;;9.30;99.90;;;;;;6277583;22;20014;-78
2022/10/19 05:04:56;;;;;;;7.38;3.28;;;9.30;99.90;;;;;;6276095;22;20394;-80
2022/10/19 05:07:22;;;;;;;8.52;2.80;;;9.20;99.90;;;;;;6277797;22;20333;-82
2022/10/19 05:09:48;;;;;;;7.97;2.75;;;9.20;99.90;;;;;;6276518;22;20011;-78
2022/10/19 05:12:13;;;;;;;5.68;2.38;;;9.20;99.90;;;;;;6276427;22;20026;-80
2022/10/19 05:14:39;;;;;;;6.68;2.42;;;9.10;99.90;;;;;;6278885;22;20004;-78
2022/10/19 05:17:05;;;;;;;6.63;2.60;;;9.00;99.90;;;;;;6276367;22;20345;-78
2022/10/19 05:19:30;;;;;;;6.63;2.50;;;9.00;99.90;;;;;;6276292;22;20073;-78
2022/10/19 05:21:56;;;;;;;10.43;2.90;;;9.00;99.90;;;;;;6250489;22;20336;-79
2022/10/19 05:24:21;;;;;;;6.03;2.55;;;9.00;99.90;;;;;;6276214;22;20042;-80
2022/10/19 05:26:47;;;;;;;8.00;2.47;;;9.00;99.90;;;;;;6278525;22;20019;-76
2022/10/19 05:29:13;;;;;;;9.32;2.70;;;9.00;99.90;;;;;;6278089;22;20365;-76
2022/10/19 05:31:39;;;;;;;9.38;2.70;;;9.00;99.90;;;;;;6276159;22;20007;-79
2022/10/19 05:34:05;;;;;;;10.98;2.67;;;9.00;99.90;;;;;;6277478;22;20366;-81
2022/10/19 05:36:35;;;;;;;9.27;3.35;;;9.00;99.90;;;;;;6275244;22;20050;-80
2022/10/19 05:39:11;;;;;;;7.05;3.08;;;9.00;99.90;;;;;;6275355;22;20039;-79
2022/10/19 05:41:37;;;;;;;5.60;2.38;;;9.00;99.90;;;;;;6275003;22;20478;-82
2022/10/19 05:44:04;;;;;;;6.45;3.03;;;8.90;99.90;;;;;;6275047;22;20020;-81
2022/10/19 05:46:31;;;;;;;5.72;2.42;;;8.90;99.90;;;;;;6274887;22;20083;-80
2022/10/19 05:48:57;;;;;;;6.88;2.63;;;8.90;99.90;;;;;;6274627;22;20019;-78
2022/10/19 05:51:24;;;;;;;11.00;2.95;;;8.90;99.90;;;;;;6249034;22;20456;-80
2022/10/19 05:53:52;;;;;;;8.65;2.97;;;8.90;99.90;;;;;;6274564;22;20449;-80
2022/10/19 05:56:20;;;;;;;6.65;2.88;;;8.90;99.90;;;;;;6275065;22;20038;-82
2022/10/19 05:58:47;;;;;;;6.88;2.38;;;8.90;99.90;;;;;;6274816;22;20096;-79
2022/10/19 06:01:13;;;;;;;11.38;2.53;;;9.00;99.90;;;;;;6274277;22;20018;-82
2022/10/19 06:03:39;;;;;;;6.18;2.70;;;9.00;99.90;;;;;;6274628;22;20140;-81
2022/10/19 06:06:07;;;;;;;4.78;2.40;;;9.00;99.90;;;;;;6276164;22;20426;-79
2022/10/19 06:08:34;;;;;;;7.18;2.95;;;9.00;99.90;;;;;;6276211;22;20015;-80
2022/10/19 06:11:12;;;;;;;9.77;2.75;;;9.10;99.90;;;;;;6276089;22;20113;-78
2022/10/19 06:13:39;;;;;;;7.70;3.25;;;9.10;99.90;;;;;;6276040;22;20035;-79
2022/10/19 06:16:06;;;;;;;7.35;2.88;;;9.10;99.90;;;;;;6274272;22;20323;-77
2022/10/19 06:18:32;;;;;;;8.45;2.58;;;9.10;99.90;;;;;;6274433;22;20019;-79
2022/10/19 06:21:11;;;;;;;5.80;2.28;;;9.10;99.90;;;;;;6275862;22;20090;-80
2022/10/19 06:23:37;;;;;;;6.60;2.83;;;9.20;99.90;;;;;;6276264;22;20008;-77
2022/10/19 06:26:06;;;;;;;9.20;2.67;;;9.20;99.90;;;;;;6274081;22;20720;-82
2022/10/19 06:28:32;;;;;;;14.70;3.28;;;9.30;99.90;;;;;;6275845;22;20019;-80
2022/10/19 06:30:58;;;;;;;17.73;3.88;;;9.30;99.90;;;;;;6275464;22;20510;-82
2022/10/19 06:33:25;;;;;;;6.90;1.77;;;9.30;99.90;;;;;;6276429;22;20090;-78
2022/10/19 06:35:50;;;;;;;12.18;2.67;;;9.30;99.90;;;;;;6275326;22;20019;-78
2022/10/19 06:38:16;;;;;;;11.75;2.47;;;9.40;99.90;;;;;;6275084;22;20145;-78
2022/10/19 06:40:42;;;;;;;8.55;2.22;;;9.40;99.90;;;;;;6248325;22;20571;-79
2022/10/19 06:43:07;;;;;;;15.00;2.67;;;9.40;99.90;;;;;;6277024;22;20034;-80
2022/10/19 06:45:36;;;;;;;11.00;2.40;;;9.40;99.90;;;;;;6276879;22;20030;-76
2022/10/19 06:48:03;;;;;;;12.02;2.58;;;9.50;99.90;;;;;;6275353;22;20054;-80
2022/10/19 06:50:30;;;;;;;10.18;2.15;;;9.50;99.90;;;;;;6275771;22;20011;-78
2022/10/19 06:52:57;;;;;;;7.70;2.30;;;9.50;99.90;;;;;;6277281;22;20018;-77
2022/10/19 06:55:23;;;;;;;7.88;2.10;;;9.60;99.90;;;;;;6277206;22;20007;-75
2022/10/19 06:57:49;;;;;;;10.25;2.00;;;9.60;99.90;;;;;;6275209;22;20015;-78
2022/10/19 07:00:15;;;;;;;12.18;2.17;;;9.60;99.90;;;;;;6249673;22;20022;-79
2022/10/19 07:02:40;;;;;;;8.00;1.63;;;9.60;99.90;;;;;;6275419;22;20441;-79
2022/10/19 07:05:07;;;;;;;14.70;2.00;;;9.60;99.90;;;;;;6276731;22;20015;-75
2022/10/19 07:07:33;;;;;;;3.08;1.15;;;9.60;99.90;;;;;;6277367;22;20018;-79
2022/10/19 07:09:59;;;;;;;7.95;1.95;;;9.70;99.90;;;;;;6277516;22;20040;-78
2022/10/19 07:12:24;;;;;;;9.30;1.52;;;9.70;99.90;;;;;;6278842;22;20035;-79
2022/10/19 07:14:51;;;;;;;8.20;1.77;;;9.70;99.90;;;;;;6279370;22;20079;-76
2022/10/19 07:17:16;;;;;;;11.80;2.35;;;9.70;99.90;;;;;;6279909;22;20004;-77
2022/10/19 07:19:42;;;;;;;9.40;2.53;;;9.70;99.90;;;;;;6277376;22;20423;-77
2022/10/19 07:22:08;;;;;;;9.65;2.00;;;9.70;99.90;;;;;;6277091;22;20437;-77
2022/10/19 07:24:33;;;;;;;11.07;2.10;;;9.80;99.90;;;;;;6277081;22;20017;-79
2022/10/19 07:26:59;;;;;;;9.05;1.75;;;9.80;99.90;;;;;;6277293;22;20022;-80
2022/10/19 07:29:24;;;;;;;7.88;2.08;;;9.90;99.90;;;;;;6277520;22;20012;-76
2022/10/19 07:31:50;;;;;;;6.82;1.48;;;9.90;99.90;;;;;;6279045;22;20012;-79
2022/10/19 07:34:16;;;;;;;11.27;1.75;;;9.90;99.90;;;;;;6277038;22;20012;-77
2022/10/19 07:36:44;;;;;;;10.27;1.42;;;10.00;99.90;;;;;;6279073;22;20004;-77
2022/10/19 07:39:11;;;;;;;10.38;1.50;;;10.00;99.90;;;;;;6277256;22;20386;-76
2022/10/19 07:41:37;;;;;;;6.28;1.30;;;10.00;99.90;;;;;;6277000;22;20019;-78
2022/10/19 07:44:04;;;;;;;9.95;1.58;;;10.10;99.90;;;;;;6279120;22;20011;-79
2022/10/19 07:46:32;;;;;;;13.65;1.63;;;10.10;99.90;;;;;;6277845;22;20083;-78
2022/10/19 07:48:59;;;;;;;10.13;1.75;;;10.10;99.90;;;;;;6278835;22;20014;-80
2022/10/19 07:51:25;;;;;;;5.78;1.42;;;10.30;99.90;;;;;;6276909;22;20053;-75
2022/10/19 07:53:51;;;;;;;13.73;1.95;;;10.30;99.90;;;;;;6279182;22;20023;-77
2022/10/19 07:56:21;;;;;;;13.68;2.42;;;10.40;99.90;;;;;;6278499;22;20008;-77
2022/10/19 07:58:49;;;;;;;11.98;2.20;;;10.40;99.90;;;;;;6278576;22;20016;-79
2022/10/19 08:01:17;;;;;;;19.48;2.58;;;10.40;99.90;;;;;;6278097;22;20458;-79
2022/10/19 08:03:44;;;;;;;14.73;2.22;;;10.50;99.90;;;;;;6276704;22;20019;-76
2022/10/19 08:06:12;;;;;;;11.35;2.47;;;10.60;99.90;;;;;;6278449;22;20008;-79
2022/10/19 08:08:38;;;;;;;12.88;2.90;;;10.60;99.90;;;;;;6278176;22;20050;-78
2022/10/19 08:11:18;;;;;;;8.82;2.05;;;10.70;99.90;;;;;;6276607;22;20441;-78
2022/10/19 08:13:44;;;;;;;11.93;1.80;;;10.70;99.90;;;;;;6276896;22;20041;-77
2022/10/19 08:16:31;;;;;;;3.42;0.68;;;10.80;99.90;;;;;;6276139;22;20047;-78
2022/10/19 08:19:00;;;;;;;8.40;1.20;;;10.90;99.90;;;;;;6276926;22;20016;-80
2022/10/19 08:21:26;;;;;;;6.70;0.93;;;11.00;99.90;;;;;;6277949;22;20077;-78
2022/10/19 08:23:52;;;;;;;14.38;1.92;;;11.00;99.90;;;;;;6278957;22;20357;-76
2022/10/19 08:26:18;;;;;;;10.23;2.20;;;11.10;99.90;;;;;;6276627;22;20065;-80
2022/10/19 08:28:44;;;;;;;6.50;1.60;;;11.20;99.90;;;;;;6278353;22;20092;-76
2022/10/19 08:31:10;;;;;;;15.82;2.13;;;11.30;99.90;;;;;;6276614;22;20047;-80
2022/10/19 08:33:36;;;;;;;9.25;1.35;;;11.30;99.90;;;;;;6251001;22;20449;-76
2022/10/19 08:36:06;;;;;;;4.32;0.80;;;11.40;99.90;;;;;;6274542;22;20069;-76
2022/10/19 08:38:34;;;;;;;19.13;3.75;;;11.40;99.90;;;;;;6250720;22;20348;-76
2022/10/19 08:41:14;;;;;;;5.97;1.10;;;11.50;99.90;;;;;;6275483;22;20018;-77
2022/10/19 08:43:51;;;;;;;11.73;1.50;;;11.50;99.90;;;;;;6276124;22;20022;-78
2022/10/19 08:46:24;;;;;;;9.75;1.38;;;11.60;99.90;;;;;;6277864;22;20441;-77
2022/10/19 08:48:51;;;;;;;9.63;1.42;;;11.60;99.90;;;;;;6276288;22;20442;-75
2022/10/19 08:51:16;;;;;;;11.57;1.13;;;11.70;99.90;;;;;;6278529;22;20007;-79
2022/10/19 08:53:42;;;;;;;10.60;1.60;;;11.70;99.90;;;;;;6276382;22;20019;-80
2022/10/19 08:56:14;;;;;;;9.50;1.05;;;11.80;99.90;;;;;;6276238;22;20388;-78
2022/10/19 08:59:11;;;;;;;6.43;1.00;;;11.90;99.90;;;;;;6276311;22;20020;-78
2022/10/19 09:01:57;;;;;;;6.20;1.23;;;12.00;99.90;;;;;;6275534;22;20352;-80
2022/10/19 09:04:26;;;;;;;;;;;12.20;99.90;;;;;;6278725;22;20078;-81
2022/10/19 09:07:03;;;;;;;8.75;0.98;;;12.30;99.90;;;;;;6250831;22;19915;-79
2022/10/19 09:09:30;;;;;;;8.43;1.08;;;12.30;99.90;;;;;;6277826;22;20012;-81
2022/10/19 09:12:05;;;;;;;6.38;1.27;;;12.40;99.90;;;;;;6276657;22;20019;-79
2022/10/19 09:14:42;;;;;;;9.75;1.23;;;12.40;99.90;;;;;;6277032;22;20452;-79
2022/10/19 09:17:15;;;;;;;2.78;0.98;;;12.30;99.90;;;;;;6278439;22;20015;-81
2022/10/19 09:19:42;;;;;;;7.43;0.82;;;12.30;99.90;;;;;;6276287;22;20018;-78
2022/10/19 09:22:19;;;;;;;6.30;1.58;;;12.30;99.90;;;;;;6276035;22;20022;-76
2022/10/19 09:24:59;;;;;;;8.95;1.33;;;12.40;99.90;;;;;;6276391;22;20022;-80
2022/10/19 09:27:31;;;;;;;7.50;0.80;;;12.40;99.90;;;;;;6278621;22;20012;-79
2022/10/19 09:30:02;;;;;;;7.97;1.15;;;12.50;99.90;;;;;;6277688;22;20016;-80
2022/10/19 09:32:37;;;;;;;6.03;0.90;;;12.50;99.90;;;;;;6276386;22;20504;-83
2022/10/19 09:35:14;;;;;;;7.00;1.00;;;12.50;99.90;;;;;;6276032;22;20050;-80
2022/10/19 09:37:44;;;;;;;9.85;1.17;;;12.60;99.90;;;;;;6250205;22;20008;-79
2022/10/19 09:40:19;;;;;;;8.02;1.35;;;12.60;99.90;;;;;;6276589;22;20038;-83
2022/10/19 09:42:44;;;;;;;8.77;0.82;;;12.80;99.90;;;;;;6276347;22;20012;-83
2022/10/19 09:45:26;;;;;;;6.63;1.10;;;12.90;99.90;;;;;;6276174;22;20333;-78
2022/10/19 09:47:52;;;;;;;7.70;0.98;;;12.80;99.90;;;;;;6277517;22;20022;-80
2022/10/19 09:50:22;;;;;;;6.82;0.60;;;12.90;99.90;;;;;;6275633;22;20333;-81
2022/10/19 09:52:54;;;;;;;8.00;1.02;;;12.80;99.90;;;;;;6277677;22;20058;-81
2022/10/19 09:55:24;;;;;;;8.65;0.88;;;12.70;99.90;;;;;;6275629;22;20042;-81
2022/10/19 09:57:58;;;;;;;9.38;0.90;;;12.60;99.90;;;;;;6276631;22;20018;-79
2022/10/19 10:00:31;;;;;;;9.75;0.70;;;12.60;99.90;;;;;;6275453;22;20094;-81
2022/10/19 10:02:56;;;;;;;6.63;0.70;;;12.50;99.90;;;;;;6278001;22;20004;-79
2022/10/19 10:05:35;;;;;;;2.65;0.70;;;12.50;99.90;;;;;;6275859;22;20342;-80
2022/10/19 10:08:03;;;;;;;5.60;0.93;;;12.50;99.90;;;;;;6275854;22;20061;-81
2022/10/19 10:10:41;;;;;;;5.55;0.90;;;12.50;99.90;;;;;;6277551;22;20039;-78
2022/10/19 10:13:18;;;;;;;5.25;0.85;;;12.70;99.90;;;;;;6275811;22;20019;-78
2022/10/19 10:15:47;;;;;;;7.22;1.08;;;13.00;99.90;;;;;;6275796;22;20012;-80
2022/10/19 10:18:15;;;;;;;7.78;1.08;;;13.20;99.90;;;;;;6250137;22;20449;-81
2022/10/19 10:21:01;;;;;;;5.68;1.50;;;13.30;99.90;;;;;;6275684;22;20110;-77
2022/10/19 10:23:34;;;;;;;8.40;1.02;;;13.20;99.90;;;;;;6275576;22;20015;-80
2022/10/19 10:26:01;;;;;;;7.82;1.35;;;13.20;99.90;;;;;;6275629;22;20098;-81
2022/10/19 10:28:29;;;;;;;4.90;1.05;;;13.20;99.90;;;;;;6275407;22;20043;-76
2022/10/19 10:31:03;;;;;;;5.88;0.85;;;13.30;99.90;;;;;;6275921;22;20408;-78
2022/10/19 10:33:31;;;;;;;8.13;0.90;;;13.40;99.90;;;;;;6249818;22;20498;-77
2022/10/19 10:36:03;;;;;;;3.88;0.70;;;13.50;99.90;;;;;;6275528;22;20082;-78
2022/10/19 10:38:35;;;;;;;6.07;0.80;;;13.70;99.90;;;;;;6277077;22;20496;-77
2022/10/19 10:41:16;;;;;;;8.25;1.30;;;13.80;99.90;;;;;;6277362;22;20050;-83
2022/10/19 10:43:55;;;;;;;9.30;1.10;;;13.90;99.90;;;;;;6275719;22;20461;-77
2022/10/19 10:46:25;;;;;;;8.50;1.75;;;13.80;99.90;;;;;;6275376;22;20015;-76
2022/10/19 10:49:00;;;;;;;6.80;1.95;;;13.80;99.90;;;;;;6275204;22;20019;-80
2022/10/19 10:51:31;;;;;;;10.40;1.03;;;13.80;99.90;;;;;;6275291;22;20069;-81
2022/10/19 10:54:21;;;;;;;7.57;1.10;;;13.80;99.90;;;;;;6275109;22;20018;-82
2022/10/19 10:57:05;;;;;;;12.68;1.25;;;14.10;99.90;;;;;;6276825;22;20193;-77
2022/10/19 10:59:50;;;;;;;8.20;1.30;;;14.40;99.90;;;;;;6275142;22;20020;-75
2022/10/19 11:02:21;;;;;;;9.23;1.30;;;14.70;99.90;;;;;;6275301;22;20591;-81
2022/10/19 11:05:03;;;;;;;6.50;1.27;;;14.90;99.90;;;;;;6275078;22;20016;-80
2022/10/19 11:07:32;;;;;;;11.35;1.02;;;15.10;99.90;;;;;;6275158;22;20020;-78
2022/10/19 11:10:05;;;;;;;15.70;1.58;;;15.10;99.90;;;;;;6275800;22;20015;-81
2022/10/19 11:12:38;;;;;;;7.00;0.93;;;15.10;99.90;;;;;;6249364;22;20043;-80
2022/10/19 11:15:35;;;;;;;8.57;1.30;;;15.00;99.90;;;;;;6275252;22;20091;-79
2022/10/19 11:18:10;;;;;;;9.48;1.20;;;15.20;99.90;;;;;;6275253;22;20475;-77
2022/10/19 11:20:44;;;;;;;7.70;1.20;;;15.40;99.90;;;;;;6274881;22;20311;-80
2022/10/19 11:23:19;;;;;;;7.05;1.17;;;15.60;99.90;;;;;;6275212;22;20016;-80
2022/10/19 11:25:53;;;;;;;4.93;0.98;;;15.70;99.90;;;;;;6276593;22;20008;-77
2022/10/19 11:28:26;;;;;;;6.13;0.85;;;15.80;99.90;;;;;;6275349;22;20345;-78
2022/10/19 11:31:04;;;;;;;8.98;1.00;;;15.70;99.90;;;;;;6274692;22;20102;-80
2022/10/19 11:34:03;;;;;;;6.70;1.00;;;15.60;99.90;;;;;;6249736;22;20012;-77
2022/10/19 11:36:53;;;;;;;4.63;1.20;;;15.50;99.90;;;;;;6274124;22;20011;-80
2022/10/19 11:39:55;;;;;;;9.55;1.27;;;15.40;99.90;;;;;;6273330;22;20020;-75
2022/10/19 11:42:30;;;;;;;7.88;0.95;;;15.30;99.90;;;;;;6274071;22;20072;-80
2022/10/19 11:45:30;;;;;;;7.03;0.80;;;15.30;99.90;;;;;;6275362;22;20016;-78
2022/10/19 11:48:23;;;;;;;4.38;1.02;;;15.50;99.90;;;;;;6249032;22;20073;-82
2022/10/19 11:50:59;;;;;;;8.85;1.73;;;15.60;99.90;;;;;;6277037;22;20012;-77
2022/10/19 11:53:55;;;;;;;9.43;1.30;;;15.80;99.90;;;;;;6277083;22;20008;-78
2022/10/19 11:56:33;;;;;;;7.03;1.17;;;16.10;99.90;;;;;;6277363;22;20056;-82
2022/10/19 11:59:46;;;;;;;9.50;1.38;;;16.10;99.90;;;;;;6276368;22;20047;-78
2022/10/19 12:02:48;;;;;;;8.32;1.40;;;16.00;99.90;;;;;;6278175;22;20023;-79
2022/10/19 12:05:26;;;;;;;7.55;1.20;;;16.00;99.90;;;;;;6251100;22;20023;-78
2022/10/19 12:08:21;;;;;;;9.13;1.23;;;16.00;99.90;;;;;;6250951;22;20065;-80
2022/10/19 12:11:18;;;;;;;12.40;1.25;;;15.90;99.90;;;;;;6276427;22;20019;-79
2022/10/19 12:14:11;;;;;;;7.80;1.42;;;15.80;99.90;;;;;;6250744;22;20018;-79
2022/10/19 12:16:41;;;;;;;13.60;1.40;;;15.70;99.90;;;;;;6276788;22;20053;-80
2022/10/19 12:19:15;;;;;;;8.32;1.17;;;15.50;99.90;;;;;;6276426;22;20344;-78
2022/10/19 12:21:42;;;;;;;9.73;1.92;;;15.30;99.90;;;;;;6250992;22;20015;-78
2022/10/19 12:24:18;;;;;;;5.63;1.35;;;15.20;99.90;;;;;;6278312;22;20012;-79
2022/10/19 12:26:45;;;;;;;9.52;1.50;;;15.10;99.90;;;;;;6277698;22;20012;-81
2022/10/19 12:29:26;;;;;;;5.35;1.40;;;15.20;99.90;;;;;;6276387;22;20410;-81
2022/10/19 12:31:54;;;;;;;9.63;1.30;;;15.30;99.90;;;;;;6276450;22;20011;-78
2022/10/19 12:34:26;;;;;;;4.70;1.30;;;15.30;99.90;;;;;;6278517;22;20087;-77
2022/10/19 12:37:03;;;;;;;6.95;1.83;;;15.60;99.90;;;;;;6276720;22;20396;-77
2022/10/19 12:39:53;;;;;;;6.55;1.20;;;15.90;99.90;;;;;;6278084;22;20086;-77
2022/10/19 12:42:30;;;;;;;6.85;1.40;;;16.20;99.90;;;;;;6276402;22;20015;-78
2022/10/19 12:45:29;;;;;;;6.93;1.23;;;16.40;99.90;;;;;;6276464;22;20026;-80
2022/10/19 12:48:07;;;;;;;7.78;1.30;;;16.40;99.90;;;;;;6276354;22;20012;-78
2022/10/19 12:50:48;;;;;;;9.55;1.50;;;16.40;99.90;;;;;;6276288;22;20020;-77
2022/10/19 12:53:31;;;;;;;3.28;1.20;;;16.30;99.90;;;;;;6278620;22;20429;-76
2022/10/19 12:56:12;;;;;;;5.57;1.60;;;16.30;99.90;;;;;;6278787;22;20012;-77
2022/10/19 12:58:40;;;;;;;7.10;1.45;;;16.20;99.90;;;;;;6276089;22;20012;-77
2022/10/19 13:01:08;;;;;;;7.72;1.33;;;16.10;99.90;;;;;;6250347;22;20024;-77
2022/10/19 13:03:43;;;;;;;8.35;1.38;;;16.10;99.90;;;;;;6275838;22;20016;-77
2022/10/19 13:06:29;;;;;;;8.05;1.45;;;16.10;99.90;;;;;;6276052;22;20012;-78
2022/10/19 13:08:57;;;;;;;;;;;16.10;99.90;;;;;;6278021;22;20426;-79
2022/10/19 13:11:23;;;;;;;5.63;1.00;;;16.00;99.90;;;;;;6277563;22;19911;-80
2022/10/19 13:13:57;;;;;;;6.70;1.20;;;16.00;99.90;;;;;;6275988;22;20022;-79
2022/10/19 13:16:38;;;;;;;6.80;1.75;;;15.90;99.90;;;;;;6275954;22;20024;-78
2022/10/19 13:19:12;;;;;;;6.30;0.98;;;15.90;99.90;;;;;;6276064;22;20319;-81
2022/10/19 13:21:58;;;;;;;4.57;0.77;;;15.90;99.90;;;;;;6275959;22;20076;-76
2022/10/19 13:24:24;;;;;;;6.35;0.80;;;15.90;99.90;;;;;;6250279;22;20256;-78
2022/10/19 13:27:25;;;;;;;2.50;0.70;;;16.00;99.90;;;;;;6275761;22;20043;-79
2022/10/19 13:29:51;;;;;;;2.65;0.52;;;16.00;99.90;;;;;;6242274;22;20077;-76
2022/10/19 13:32:42;;;;;;;4.90;0.88;;;16.00;99.90;;;;;;6276316;22;20016;-79
2022/10/19 13:35:24;;;;;;;1.80;0.70;;;16.10;99.90;;;;;;6278247;22;20251;-81
2022/10/19 13:38:08;;;;;;;2.30;0.70;;;16.10;99.90;;;;;;6276546;22;20023;-77
2022/10/19 13:40:36;;;;;;;5.18;1.15;;;16.20;99.90;;;;;;6276041;22;20020;-79
2022/10/19 13:43:02;;;;;;;3.92;1.30;;;16.20;99.90;;;;;;6276284;22;20016;-79
2022/10/19 13:45:28;;;;;;;8.43;1.63;;;16.30;99.90;;;;;;6276351;22;20018;-80
2022/10/19 13:48:09;;;;;;;7.43;1.88;;;16.40;99.90;;;;;;6276271;22;20012;-80
2022/10/19 13:50:45;;;;;;;6.57;1.52;;;16.30;99.90;;;;;;6276503;22;20012;-78
2022/10/19 13:53:22;;;;;;;7.85;1.40;;;16.40;99.90;;;;;;6276341;22;20333;-76
2022/10/19 13:56:00;;;;;;;7.38;1.38;;;16.40;99.90;;;;;;6250691;22;20014;-80
2022/10/19 13:58:44;;;;;;;5.45;1.25;;;16.30;99.90;;;;;;6250644;22;20024;-81
2022/10/19 14:01:45;;;;;;;6.15;1.38;;;16.30;99.90;;;;;;6275875;22;20020;-78
2022/10/19 14:04:32;;;;;;;4.95;1.52;;;16.20;99.90;;;;;;6249846;22;20020;-80
2022/10/19 14:07:20;;;;;;;7.53;1.60;;;16.20;99.90;;;;;;6250595;22;20064;-77
2022/10/19 14:10:16;;;;;;;7.00;1.55;;;16.10;99.90;;;;;;6275990;22;20111;-79
2022/10/19 14:12:44;;;;;;;6.95;1.52;;;16.00;99.90;;;;;;6275660;22;20495;-77
2022/10/19 14:15:17;;;;;;;6.97;1.70;;;15.80;99.90;;;;;;6275495;22;20019;-81
2022/10/19 14:17:43;;;;;;;7.68;1.92;;;15.60;99.90;;;;;;6275799;22;20014;-80
2022/10/19 14:20:36;;;;;;;8.90;1.80;;;15.40;99.90;;;;;;6276089;22;20491;-78
2022/10/19 14:23:32;;;;;;;5.32;1.55;;;15.30;99.90;;;;;;6270965;22;20011;-79
2022/10/19 14:26:19;;;;;;;9.95;2.25;;;15.10;99.90;;;;;;6275555;22;20395;-75
2022/10/19 14:28:52;;;;;;;6.72;1.98;;;14.90;99.90;;;;;;6274495;22;20020;-79
2022/10/19 14:31:21;;;;;;;5.55;1.60;;;14.80;99.90;;;;;;6275437;22;20019;-78
2022/10/19 14:33:50;;;;;;;10.68;1.70;;;14.80;99.90;;;;;;6275303;22;20337;-78
2022/10/19 14:36:21;;;;;;;8.68;2.30;;;14.70;99.90;;;;;;6275430;22;20467;-79
2022/10/19 14:38:55;;;;;;;6.50;2.15;;;14.60;99.90;;;;;;6277219;22;20019;-80
2022/10/19 14:41:26;;;;;;;6.07;1.85;;;14.50;99.90;;;;;;6275360;22;20022;-77
2022/10/19 14:43:52;;;;;;;8.05;2.13;;;14.40;99.90;;;;;;6275334;22;20015;-80
2022/10/19 14:46:18;;;;;;;7.72;1.90;;;14.40;99.90;;;;;;6275042;22;20057;-78
2022/10/19 14:48:47;;;;;;;8.80;2.60;;;14.20;99.90;;;;;;6274922;22;20020;-76
2022/10/19 14:51:44;;;;;;;6.95;2.30;;;14.20;99.90;;;;;;6249391;22;20058;-77
2022/10/19 14:54:27;;;;;;;6.68;2.30;;;14.10;99.90;;;;;;6258376;22;20083;-75
2022/10/19 14:56:56;;;;;;;9.00;2.20;;;14.00;99.90;;;;;;6276059;22;20007;-77
2022/10/19 14:59:24;;;;;;;11.10;2.70;;;14.00;99.90;;;;;;6277379;22;20035;-78
2022/10/19 15:01:53;;;;;;;8.05;2.00;;;14.00;99.90;;;;;;6274860;22;20023;-78
2022/10/19 15:04:23;;;;;;;8.85;2.70;;;14.00;99.90;;;;;;6275146;22;20011;-79
2022/10/19 15:06:49;;;;;;;9.27;2.45;;;14.00;99.90;;;;;;6275832;22;20016;-80
2022/10/19 15:09:38;;;;;;;6.53;2.40;;;14.00;99.90;;;;;;6275777;22;20069;-75
2022/10/19 15:12:09;;;;;;;7.03;2.47;;;13.90;99.90;;;;;;6275941;22;20019;-77
2022/10/19 15:14:36;;;;;;;10.40;2.70;;;13.80;99.90;;;;;;6275612;22;20053;-78
2022/10/19 15:17:04;;;;;;;5.70;2.83;;;13.80;99.90;;;;;;6250246;22;20550;-81
2022/10/19 15:19:36;;;;;;;9.88;3.20;;;13.80;99.90;;;;;;6275778;22;20112;-76
2022/10/19 15:22:08;;;;;;;10.40;3.33;;;13.80;99.90;;;;;;6277316;22;20087;-76
2022/10/19 15:24:34;;;;;;;7.75;2.33;;;13.70;99.90;;;;;;6275352;22;20103;-78
2022/10/19 15:27:16;;;;;;;9.48;2.95;;;13.70;99.90;;;;;;6279815;22;20074;-75
2022/10/19 15:29:57;;;;;;;8.43;3.55;;;13.60;99.90;;;;;;6277397;22;20023;-77
2022/10/19 15:32:28;;;;;;;8.18;3.00;;;13.60;99.90;;;;;;6252349;22;20445;-78
2022/10/19 15:34:54;;;;;;;9.07;3.50;;;13.50;99.90;;;;;;6279721;22;20007;-77
2022/10/19 15:37:22;;;;;;;15.00;3.55;;;13.50;99.90;;;;;;6277369;22;20061;-75
2022/10/19 15:39:50;;;;;;;6.10;2.70;;;13.40;99.90;;;;;;6277340;22;20070;-79
2022/10/19 15:42:38;;;;;;;6.38;3.17;;;13.40;99.90;;;;;;6277000;22;20050;-75
2022/10/19 15:45:28;;;;;;;7.75;3.00;;;13.30;99.90;;;;;;6276952;22;20022;-78
2022/10/19 15:48:08;;;;;;;8.23;3.50;;;13.30;99.90;;;;;;6260064;22;20015;-80
2022/10/19 15:50:47;;;;;;;8.13;3.15;;;13.20;99.90;;;;;;6279347;22;20014;-78
2022/10/19 15:53:14;;;;;;;8.55;3.10;;;13.20;99.90;;;;;;6279672;22;20007;-78
2022/10/19 15:55:39;;;;;;;7.13;3.45;;;13.10;99.90;;;;;;6279484;22;20018;-76
2022/10/19 15:58:05;;;;;;;8.55;3.35;;;13.10;99.90;;;;;;6277257;22;20346;-77
2022/10/19 16:00:31;;;;;;;9.32;3.40;;;13.00;99.90;;;;;;6276944;22;20015;-81
2022/10/19 16:02:57;;;;;;;10.15;3.58;;;13.00;99.90;;;;;;6277579;22;20016;-77
2022/10/19 16:05:23;;;;;;;9.65;3.47;;;13.00;99.90;;;;;;6279621;22;20012;-81
2022/10/19 16:07:49;;;;;;;7.88;3.22;;;12.90;99.90;;;;;;6277401;22;20012;-77
2022/10/19 16:10:18;;;;;;;7.43;3.45;;;12.80;99.90;;;;;;6279248;22;20074;-80
2022/10/19 16:12:43;;;;;;;9.35;3.95;;;12.80;99.90;;;;;;6277083;22;20442;-79
2022/10/19 16:15:16;;;;;;;6.45;3.15;;;12.70;99.90;;;;;;6277921;22;20012;-78
2022/10/19 16:17:43;;;;;;;9.35;3.53;;;12.70;99.90;;;;;;6278913;22;20018;-79